LFSN/ENC METAR and TAF weather

Enter ICAO airport designator
Station Type Date Time Source
LFSN METAR 2019/09/21 05:00 UTC NOAA

LFSN 210500Z AUTO VRB02KT CAVOK 06/02 Q1019


Station Type Date Time Source
LFSN Decoded METAR 2019/09/21 05:00 UTC NOAA

Nancy / Essey, France (LFSN) 48-41N 006-13E 217M
Sep 21, 2019 - 01:00 AM EDT / 2019.09.21 0500 UTC
Wind: Variable at 2 MPH (2 KT):0
Visibility: greater than 7 mile(s):0
Temperature: 42 F (6 C)
Dew Point: 35 F (2 C)
Relative Humidity: 75%
Pressure (altimeter): 30.09 in. Hg (1019 hPa)
ob: LFSN 210500Z AUTO VRB02KT CAVOK 06/02 Q1019
cycle: 5

Station Type Date Time Source
LFSN TAF 2012/03/14 16:58 UTC NOAA

TAF LFSN 141600Z 1416/1512 CNL

Example: see airport list